createdAt,value
2023-04-16T00:02:40.063Z,99710.47
2023-04-16T00:05:43.215Z,99699.50
2023-04-16T00:08:46.016Z,99705.22
2023-04-16T00:11:48.955Z,99706.59
2023-04-16T00:14:51.486Z,99699.69
2023-04-16T00:17:54.325Z,99708.75
2023-04-16T00:20:57.268Z,99706.56
2023-04-16T00:24:00.390Z,99707.78
2023-04-16T00:27:23.185Z,99709.22
2023-04-16T00:30:26.588Z,99705.63
2023-04-16T00:33:30.198Z,99708.03
2023-04-16T00:36:33.086Z,99712.78
2023-04-16T00:39:35.643Z,99707.78
2023-04-16T00:42:38.402Z,99708.22
2023-04-16T00:45:41.005Z,99715.81
2023-04-16T00:48:44.350Z,99703.34
2023-04-16T00:51:48.165Z,99714.94
2023-04-16T00:54:50.998Z,99713.56
2023-04-16T00:57:53.514Z,99702.97
2023-04-16T01:00:56.838Z,99701.72
2023-04-16T01:03:59.716Z,99705.06
2023-04-16T01:07:02.950Z,99709.25
2023-04-16T01:10:06.135Z,99708.12
2023-04-16T01:13:09.159Z,99703.81
2023-04-16T01:16:12.791Z,99703.94
2023-04-16T01:19:15.828Z,99715.50
2023-04-16T01:22:18.347Z,99711.87
2023-04-16T01:25:21.267Z,99715.78
2023-04-16T01:28:23.873Z,99713.53
2023-04-16T01:31:27.211Z,99715.22
2023-04-16T01:34:30.577Z,99712.00
2023-04-16T01:37:34.003Z,99721.31
2023-04-16T01:40:38.050Z,99717.59
2023-04-16T01:43:42.526Z,99726.63
2023-04-16T01:46:45.342Z,99723.28
2023-04-16T01:49:48.420Z,99722.44
2023-04-16T01:52:51.251Z,99717.88
2023-04-16T01:55:54.120Z,99721.34
2023-04-16T01:58:57.030Z,99716.34
2023-04-16T02:02:03.841Z,99713.00
2023-04-16T02:05:08.572Z,99717.59
2023-04-16T02:08:11.253Z,99721.38
2023-04-16T02:11:14.216Z,99733.87
2023-04-16T02:14:17.064Z,99744.31
2023-04-16T02:17:20.067Z,99738.19
2023-04-16T02:20:23.118Z,99747.38
2023-04-16T02:23:26.182Z,99749.97
2023-04-16T02:26:29.799Z,99747.88
2023-04-16T02:29:33.954Z,99738.97
2023-04-16T02:32:37.112Z,99745.50
2023-04-16T02:35:41.301Z,99749.00
2023-04-16T02:38:43.946Z,99743.38
2023-04-16T02:41:46.994Z,99746.44
2023-04-16T02:44:49.879Z,99743.53
2023-04-16T02:47:52.871Z,99745.03
2023-04-16T02:50:55.744Z,99740.03
2023-04-16T02:53:58.667Z,99732.81
2023-04-16T02:57:02.424Z,99736.03
2023-04-16T03:00:06.605Z,99732.88
2023-04-16T03:03:09.307Z,99743.00
2023-04-16T03:06:12.807Z,99742.72
2023-04-16T03:09:15.490Z,99744.25
2023-04-16T03:12:18.415Z,99748.97
2023-04-16T03:15:21.035Z,99749.78
2023-04-16T03:18:23.928Z,99746.50
2023-04-16T03:21:46.326Z,99743.16
2023-04-16T03:24:49.588Z,99744.91
2023-04-16T03:27:52.233Z,99747.13
2023-04-16T03:30:55.735Z,99754.91
2023-04-16T03:33:58.288Z,99778.94
2023-04-16T03:37:01.566Z,99780.63
2023-04-16T03:40:06.222Z,99789.22
2023-04-16T03:43:09.207Z,99787.97
2023-04-16T03:46:13.143Z,99796.72
2023-04-16T03:49:15.974Z,99796.97
2023-04-16T03:52:19.080Z,99808.50
2023-04-16T03:55:22.197Z,99807.09
2023-04-16T03:58:24.872Z,99800.28
2023-04-16T04:01:28.147Z,99807.75
2023-04-16T04:04:31.238Z,99813.06
2023-04-16T04:07:34.155Z,99816.16
2023-04-16T04:10:37.296Z,99812.81
2023-04-16T04:13:40.383Z,99815.19
2023-04-16T04:16:43.689Z,99809.63
2023-04-16T04:20:00.134Z,99808.66
2023-04-16T04:23:04.511Z,99800.97
2023-04-16T04:26:07.577Z,99821.66
2023-04-16T04:29:11.194Z,99820.81
2023-04-16T04:32:13.918Z,99819.44
2023-04-16T04:35:16.763Z,99822.12
2023-04-16T04:38:22.093Z,99821.84
2023-04-16T04:41:26.990Z,99829.81
2023-04-16T04:44:29.692Z,99828.13
2023-04-16T04:47:33.033Z,99836.53
2023-04-16T04:50:36.891Z,99828.59
2023-04-16T04:53:39.862Z,99838.88
2023-04-16T04:56:42.340Z,99841.97
2023-04-16T04:59:45.945Z,99837.25
2023-04-16T05:02:49.789Z,99840.03
2023-04-16T05:05:52.932Z,99836.44
2023-04-16T05:08:56.023Z,99848.56
2023-04-16T05:11:59.285Z,99847.59
2023-04-16T05:15:01.842Z,99844.28
2023-04-16T05:18:05.675Z,99844.44
2023-04-16T05:21:08.615Z,99845.53
2023-04-16T05:24:12.565Z,99834.72
2023-04-16T05:27:16.900Z,99843.72
2023-04-16T05:30:19.958Z,99843.75
2023-04-16T05:33:22.532Z,99853.50
2023-04-16T05:36:25.499Z,99867.12
2023-04-16T05:39:28.091Z,99870.06
2023-04-16T05:42:31.074Z,99876.19
2023-04-16T05:45:39.597Z,99890.12
2023-04-16T05:48:43.347Z,99880.06
2023-04-16T05:51:46.036Z,99878.56
2023-04-16T05:54:48.837Z,99881.34
2023-04-16T05:57:51.600Z,99884.66
2023-04-16T06:01:54.584Z,99882.72
2023-04-16T06:05:02.304Z,99880.63
2023-04-16T06:08:04.962Z,99894.13
2023-04-16T06:11:08.296Z,99895.78
2023-04-16T06:14:11.194Z,99889.38
2023-04-16T06:17:14.266Z,99879.87
2023-04-16T06:20:17.733Z,99884.06
2023-04-16T06:23:20.543Z,99877.09
2023-04-16T06:26:23.085Z,99883.50
2023-04-16T06:29:37.067Z,99881.25
2023-04-16T06:32:43.716Z,99874.47
2023-04-16T06:35:46.612Z,99877.44
2023-04-16T06:38:49.160Z,99864.06
2023-04-16T06:41:52.415Z,99870.09
2023-04-16T06:44:54.945Z,99870.87
2023-04-16T06:47:59.131Z,99872.69
2023-04-16T06:51:02.187Z,99865.13
2023-04-16T06:54:06.236Z,99862.69
2023-04-16T06:57:08.777Z,99869.97
2023-04-16T07:00:12.313Z,99862.78
2023-04-16T07:03:15.090Z,99859.88
2023-04-16T07:06:19.909Z,99865.63
2023-04-16T07:09:22.393Z,99876.22
2023-04-16T07:12:25.517Z,99874.31
2023-04-16T07:15:28.011Z,99867.31
2023-04-16T07:18:30.845Z,99879.03
2023-04-16T07:21:33.400Z,99881.06
2023-04-16T07:24:36.308Z,99878.41
2023-04-16T07:27:38.986Z,99875.81
2023-04-16T07:30:41.801Z,99880.38
2023-04-16T07:33:44.469Z,99888.75
2023-04-16T07:36:47.314Z,99884.41
2023-04-16T07:39:50.137Z,99881.28
2023-04-16T07:42:53.051Z,99880.78
2023-04-16T07:45:55.896Z,99876.63
2023-04-16T07:48:58.730Z,99878.81
2023-04-16T07:52:01.403Z,99880.34
2023-04-16T07:55:05.172Z,99879.41
2023-04-16T07:58:09.524Z,99876.06
2023-04-16T08:01:13.073Z,99880.06
2023-04-16T08:04:20.218Z,99876.06
2023-04-16T08:07:22.886Z,99876.56
2023-04-16T08:10:26.228Z,99866.06
2023-04-16T08:13:28.859Z,99880.03
2023-04-16T08:16:31.865Z,99870.84
2023-04-16T08:19:34.802Z,99872.50
2023-04-16T08:22:37.704Z,99865.81
2023-04-16T08:25:40.316Z,99869.06
2023-04-16T08:28:43.337Z,99873.16
2023-04-16T08:31:46.589Z,99876.84
2023-04-16T08:35:10.428Z,99886.44
2023-04-16T08:38:13.976Z,99883.75
2023-04-16T08:41:16.883Z,99884.50
2023-04-16T08:44:32.769Z,99892.19
2023-04-16T08:47:39.022Z,99887.66
2023-04-16T08:50:42.169Z,99884.81
2023-04-16T08:53:53.695Z,99903.19
2023-04-16T08:56:58.276Z,99899.75
2023-04-16T09:00:01.515Z,99899.94
2023-04-16T09:03:04.904Z,99895.69
2023-04-16T09:06:08.888Z,99896.66
2023-04-16T09:09:12.974Z,99908.28
2023-04-16T09:12:17.457Z,99904.25
2023-04-16T09:15:20.970Z,99907.66
2023-04-16T09:18:24.507Z,99907.31
2023-04-16T09:21:27.994Z,99907.19
2023-04-16T09:24:31.417Z,99910.63
2023-04-16T09:27:34.494Z,99919.78
2023-04-16T09:31:18.938Z,99915.22
2023-04-16T09:34:25.692Z,99914.41
2023-04-16T09:37:30.140Z,99922.06
2023-04-16T09:40:32.696Z,99920.28
2023-04-16T09:43:35.735Z,99926.47
2023-04-16T09:46:41.761Z,99928.00
2023-04-16T09:49:44.811Z,99932.78
2023-04-16T09:52:51.401Z,99929.84
2023-04-16T09:56:06.211Z,99932.09
2023-04-16T09:59:17.549Z,99938.09
2023-04-16T10:02:27.469Z,99939.13
2023-04-16T10:05:30.740Z,99936.44
2023-04-16T10:08:34.308Z,99937.97
2023-04-16T10:11:37.425Z,99936.19
2023-04-16T10:14:41.177Z,99934.34
2023-04-16T10:17:44.187Z,99929.81
2023-04-16T10:20:46.985Z,99923.06
2023-04-16T10:23:52.098Z,99915.91
2023-04-16T10:26:55.432Z,99915.13
2023-04-16T10:29:58.559Z,99919.47
2023-04-16T10:33:02.513Z,99914.44
2023-04-16T10:36:13.869Z,99911.56
2023-04-16T10:39:21.863Z,99910.16
2023-04-16T10:42:26.052Z,99892.66
2023-04-16T10:45:47.925Z,99894.37
2023-04-16T10:48:54.302Z,99892.50
2023-04-16T10:52:02.378Z,99897.91
2023-04-16T10:55:06.302Z,99886.72
2023-04-16T10:58:27.935Z,99887.88
2023-04-16T11:01:36.181Z,99885.31
2023-04-16T11:04:40.409Z,99891.34
2023-04-16T11:07:49.626Z,99885.63
2023-04-16T11:10:53.040Z,99885.41
2023-04-16T11:13:57.120Z,99883.34
2023-04-16T11:17:03.627Z,99879.44
2023-04-16T11:20:20.223Z,99881.09
2023-04-16T11:23:23.523Z,99872.06
2023-04-16T11:26:31.015Z,99880.69
2023-04-16T11:29:36.063Z,99878.47
2023-04-16T11:32:39.530Z,99877.47
2023-04-16T11:35:46.130Z,99879.44
2023-04-16T11:38:49.229Z,99869.91
2023-04-16T11:41:56.051Z,99868.97
2023-04-16T11:45:03.124Z,99867.75
2023-04-16T11:48:05.906Z,99873.75
2023-04-16T11:51:08.975Z,99858.41
2023-04-16T11:54:21.469Z,99860.09
2023-04-16T11:57:31.853Z,99870.00
2023-04-16T12:00:37.581Z,99858.34
2023-04-16T12:03:46.182Z,99861.53
2023-04-16T12:07:11.037Z,99860.09
2023-04-16T12:10:13.945Z,99858.66
2023-04-16T12:13:17.740Z,99852.22
2023-04-16T12:16:21.061Z,99851.00
2023-04-16T12:19:23.933Z,99856.78
2023-04-16T12:22:36.730Z,99847.66
2023-04-16T12:25:42.905Z,99856.37
2023-04-16T12:28:47.453Z,99848.53
2023-04-16T12:31:51.293Z,99844.38
2023-04-16T12:34:54.172Z,99846.03
2023-04-16T12:37:56.902Z,99840.22
2023-04-16T12:41:02.371Z,99840.22
2023-04-16T12:44:18.253Z,99831.94
2023-04-16T12:47:21.218Z,99839.41
2023-04-16T12:50:23.911Z,99831.56
2023-04-16T12:53:27.222Z,99817.47
2023-04-16T12:56:30.732Z,99815.63
2023-04-16T12:59:33.650Z,99817.47
2023-04-16T13:02:36.800Z,99814.78
2023-04-16T13:05:40.625Z,99814.56
2023-04-16T13:08:44.486Z,99807.72
2023-04-16T13:11:47.604Z,99817.41
2023-04-16T13:14:50.181Z,99800.22
2023-04-16T13:17:53.116Z,99814.69
2023-04-16T13:20:55.908Z,99814.06
2023-04-16T13:23:59.658Z,99812.38
2023-04-16T13:27:02.219Z,99803.28
2023-04-16T13:30:05.860Z,99796.56
2023-04-16T13:33:09.457Z,99793.44
2023-04-16T13:36:13.117Z,99792.94
2023-04-16T13:39:16.499Z,99789.34
2023-04-16T13:42:19.335Z,99786.75
2023-04-16T13:45:22.058Z,99783.41
2023-04-16T13:48:28.053Z,99788.66
2023-04-16T13:51:30.557Z,99788.66
2023-04-16T13:54:33.459Z,99782.22
2023-04-16T13:57:36.485Z,99777.88
2023-04-16T14:00:39.486Z,99774.66
2023-04-16T14:03:42.529Z,99782.59
2023-04-16T14:06:45.684Z,99772.63
2023-04-16T14:09:48.630Z,99775.19
2023-04-16T14:12:51.837Z,99767.41
2023-04-16T14:15:55.759Z,99764.75
2023-04-16T14:18:58.559Z,99770.97
2023-04-16T14:22:01.409Z,99778.47
2023-04-16T14:25:04.278Z,99768.75
2023-04-16T14:28:07.356Z,99769.69
2023-04-16T14:31:10.631Z,99764.16
2023-04-16T14:34:13.601Z,99763.38
2023-04-16T14:37:17.509Z,99756.34
2023-04-16T14:40:20.458Z,99756.00
2023-04-16T14:43:23.084Z,99754.59
2023-04-16T14:46:27.134Z,99757.94
2023-04-16T14:49:30.166Z,99753.81
2023-04-16T14:52:33.162Z,99750.13
2023-04-16T14:55:35.749Z,99745.59
2023-04-16T14:58:39.396Z,99760.97
2023-04-16T15:01:42.889Z,99761.16
2023-04-16T15:04:46.618Z,99754.84
2023-04-16T15:07:49.433Z,99749.06
2023-04-16T15:10:52.675Z,99750.13
2023-04-16T15:13:56.046Z,99751.06
2023-04-16T15:16:59.121Z,99744.81
2023-04-16T15:20:01.759Z,99744.88
2023-04-16T15:23:04.729Z,99745.12
2023-04-16T15:26:07.574Z,99744.72
2023-04-16T15:29:10.869Z,99740.56
2023-04-16T15:32:13.557Z,99749.75
2023-04-16T15:35:16.429Z,99748.63
2023-04-16T15:38:21.519Z,99754.66
2023-04-16T15:41:25.006Z,99749.28
2023-04-16T15:44:54.202Z,99747.06
2023-04-16T15:47:57.271Z,99755.13
2023-04-16T15:51:05.461Z,99761.97
2023-04-16T15:54:56.585Z,99747.50
2023-04-16T15:58:18.176Z,99752.69
2023-04-16T16:01:22.327Z,99753.16
2023-04-16T16:04:26.658Z,99746.34
2023-04-16T16:07:29.773Z,99752.97
2023-04-16T16:10:34.327Z,99756.69
2023-04-16T16:13:38.085Z,99749.22
2023-04-16T16:16:42.387Z,99754.34
2023-04-16T16:19:46.728Z,99756.84
2023-04-16T16:23:00.126Z,99764.25
2023-04-16T16:26:26.890Z,99758.25
2023-04-16T16:29:56.621Z,99763.63
2023-04-16T16:33:08.104Z,99764.03
2023-04-16T16:36:11.776Z,99759.91
2023-04-16T16:39:14.835Z,99764.00
2023-04-16T16:42:18.883Z,99760.50
2023-04-16T16:45:21.848Z,99760.88
2023-04-16T16:48:25.426Z,99761.28
2023-04-16T16:51:30.457Z,99768.50
2023-04-16T16:54:33.578Z,99762.50
2023-04-16T16:57:36.954Z,99763.91
2023-04-16T17:00:40.334Z,99771.38
2023-04-16T17:03:43.274Z,99770.94
2023-04-16T17:06:46.989Z,99774.22
2023-04-16T17:09:50.718Z,99773.19
2023-04-16T17:12:54.113Z,99768.12
2023-04-16T17:15:57.066Z,99774.19
2023-04-16T17:19:01.375Z,99772.87
2023-04-16T17:22:05.187Z,99780.28
2023-04-16T17:25:08.991Z,99770.34
2023-04-16T17:28:11.772Z,99770.56
2023-04-16T17:31:15.524Z,99773.00
2023-04-16T17:34:19.661Z,99783.25
2023-04-16T17:37:24.577Z,99778.91
2023-04-16T17:40:27.521Z,99777.84
2023-04-16T17:43:30.828Z,99782.97
2023-04-16T17:46:33.758Z,99792.88
2023-04-16T17:49:39.653Z,99786.44
2023-04-16T17:52:42.555Z,99790.75
2023-04-16T17:55:56.837Z,99793.78
2023-04-16T17:59:00.792Z,99794.69
2023-04-16T18:02:04.359Z,99796.78
2023-04-16T18:05:10.455Z,99802.91
2023-04-16T18:08:16.975Z,99799.59
2023-04-16T18:11:22.831Z,99806.69
2023-04-16T18:14:26.360Z,99807.44
2023-04-16T18:17:30.037Z,99802.41
2023-04-16T18:20:35.765Z,99805.13
2023-04-16T18:23:39.170Z,99806.16
2023-04-16T18:26:42.517Z,99802.75
2023-04-16T18:29:49.369Z,99811.91
2023-04-16T18:33:13.164Z,99809.41
2023-04-16T18:36:16.564Z,99802.75
2023-04-16T18:39:19.406Z,99809.75
2023-04-16T18:42:28.308Z,99803.63
2023-04-16T18:45:34.362Z,99802.28
2023-04-16T18:48:38.174Z,99789.28
2023-04-16T18:51:42.270Z,99796.13
2023-04-16T18:54:45.890Z,99808.59
2023-04-16T18:57:49.306Z,99806.94
2023-04-16T19:00:59.573Z,99821.22
2023-04-16T19:04:03.549Z,99815.72
2023-04-16T19:07:07.375Z,99817.94
2023-04-16T19:10:10.712Z,99821.16
2023-04-16T19:13:17.211Z,99818.28
2023-04-16T19:16:20.929Z,99810.81
2023-04-16T19:19:24.771Z,99816.25
2023-04-16T19:22:28.129Z,99810.34
2023-04-16T19:25:32.611Z,99805.09
2023-04-16T19:28:35.682Z,99805.81
2023-04-16T19:31:39.215Z,99801.88
2023-04-16T19:34:42.284Z,99798.19
2023-04-16T19:37:46.486Z,99798.44
2023-04-16T19:40:49.507Z,99794.38
2023-04-16T19:43:54.771Z,99800.81
2023-04-16T19:46:59.221Z,99795.84
2023-04-16T19:50:08.500Z,99793.44
2023-04-16T19:53:12.056Z,99793.44
2023-04-16T19:56:17.093Z,99795.94
2023-04-16T19:59:20.729Z,99789.47
2023-04-16T20:02:24.209Z,99787.44
2023-04-16T20:05:29.359Z,99792.78
2023-04-16T20:08:32.285Z,99788.50
2023-04-16T20:11:35.848Z,99787.22
2023-04-16T20:14:39.040Z,99796.53
2023-04-16T20:17:42.414Z,99790.72
2023-04-16T20:20:47.302Z,99793.22
2023-04-16T20:23:50.125Z,99791.62
2023-04-16T20:26:53.694Z,99793.28
2023-04-16T20:29:56.942Z,99787.13
2023-04-16T20:32:59.688Z,99785.09
2023-04-16T20:36:02.760Z,99791.62
2023-04-16T20:39:07.922Z,99785.47
2023-04-16T20:42:11.654Z,99781.31
2023-04-16T20:45:14.367Z,99781.69
2023-04-16T20:48:17.484Z,99787.66
2023-04-16T20:51:21.523Z,99788.59
2023-04-16T20:54:24.404Z,99790.44
2023-04-16T20:57:29.426Z,99786.66
2023-04-16T21:00:32.342Z,99785.47
2023-04-16T21:03:35.432Z,99785.19
2023-04-16T21:06:43.093Z,99777.72
2023-04-16T21:09:45.851Z,99765.28
2023-04-16T21:12:48.864Z,99765.19
2023-04-16T21:15:51.512Z,99772.00
2023-04-16T21:18:55.754Z,99779.28
2023-04-16T21:21:58.550Z,99771.44
2023-04-16T21:25:02.566Z,99769.22
2023-04-16T21:28:05.447Z,99772.78
2023-04-16T21:31:08.396Z,99769.59
2023-04-16T21:34:10.986Z,99769.97
2023-04-16T21:37:13.784Z,99764.19
2023-04-16T21:40:16.598Z,99762.72
2023-04-16T21:43:24.021Z,99766.69
2023-04-16T21:46:29.724Z,99763.06
2023-04-16T21:49:32.789Z,99768.59
2023-04-16T21:52:40.590Z,99763.25
2023-04-16T21:55:43.912Z,99763.31
2023-04-16T21:58:46.520Z,99764.97
2023-04-16T22:01:49.433Z,99762.66
2023-04-16T22:04:52.426Z,99757.87
2023-04-16T22:07:55.014Z,99754.00
2023-04-16T22:10:59.283Z,99752.53
2023-04-16T22:14:08.853Z,99758.53
2023-04-16T22:17:12.864Z,99746.53
2023-04-16T22:20:16.595Z,99744.25
2023-04-16T22:23:28.436Z,99748.91
2023-04-16T22:27:15.888Z,99740.69
2023-04-16T22:30:31.446Z,99743.47
2023-04-16T22:34:15.985Z,99733.75
2023-04-16T22:37:24.693Z,99738.25
2023-04-16T22:40:31.578Z,99739.31
2023-04-16T22:43:37.189Z,99733.03
2023-04-16T22:46:40.862Z,99725.69
2023-04-16T22:49:43.740Z,99728.00
2023-04-16T22:52:46.529Z,99727.22
2023-04-16T22:55:49.368Z,99729.56
2023-04-16T22:58:52.877Z,99716.69
2023-04-16T23:01:56.056Z,99723.66
2023-04-16T23:05:00.696Z,99712.81
2023-04-16T23:08:03.678Z,99716.31
2023-04-16T23:11:06.432Z,99720.34
2023-04-16T23:14:09.824Z,99714.53
2023-04-16T23:17:13.792Z,99712.28
2023-04-16T23:20:16.688Z,99711.41
2023-04-16T23:23:19.680Z,99712.53
2023-04-16T23:26:22.624Z,99707.91
2023-04-16T23:29:25.302Z,99701.03
2023-04-16T23:32:28.268Z,99708.19
2023-04-16T23:35:31.006Z,99699.72
2023-04-16T23:38:34.103Z,99705.19
2023-04-16T23:41:36.645Z,99699.72
2023-04-16T23:44:39.522Z,99697.19
2023-04-16T23:47:42.374Z,99688.16
2023-04-16T23:51:01.172Z,99688.72
2023-04-16T23:54:04.357Z,99693.69
2023-04-16T23:57:07.164Z,99690.91
